sensor_id;sensor_type;location;lat;lon;timestamp;temperature;humidity
37324;DHT22;23205;49.986;18.950;2022-10-19T00:04:52;13.60;99.90
37324;DHT22;23205;49.986;18.950;2022-10-19T00:09:52;13.50;99.90
37324;DHT22;23205;49.986;18.950;2022-10-19T00:14:53;13.20;99.90
37324;DHT22;23205;49.986;18.950;2022-10-19T00:19:54;13.40;99.90
37324;DHT22;23205;49.986;18.950;2022-10-19T00:24:56;13.50;99.90
37324;DHT22;23205;49.986;18.950;2022-10-19T00:29:57;13.30;99.90
37324;DHT22;23205;49.986;18.950;2022-10-19T00:34:57;13.30;99.90
37324;DHT22;23205;49.986;18.950;2022-10-19T00:39:58;13.10;99.90
37324;DHT22;23205;49.986;18.950;2022-10-19T00:45:04;13.10;99.90
37324;DHT22;23205;49.986;18.950;2022-10-19T00:50:05;13.20;99.90
37324;DHT22;23205;49.986;18.950;2022-10-19T00:55:07;13.20;99.90
37324;DHT22;23205;49.986;18.950;2022-10-19T01:00:08;13.10;99.90
37324;DHT22;23205;49.986;18.950;2022-10-19T01:05:10;13.10;99.90
37324;DHT22;23205;49.986;18.950;2022-10-19T01:10:11;13.10;99.90
37324;DHT22;23205;49.986;18.950;2022-10-19T01:15:27;13.20;99.90
37324;DHT22;23205;49.986;18.950;2022-10-19T01:21:10;13.20;99.90
37324;DHT22;23205;49.986;18.950;2022-10-19T01:26:12;13.30;99.90
37324;DHT22;23205;49.986;18.950;2022-10-19T01:31:33;13.10;99.90
37324;DHT22;23205;49.986;18.950;2022-10-19T01:42:31;12.90;99.90
37324;DHT22;23205;49.986;18.950;2022-10-19T01:47:39;13.00;99.90
37324;DHT22;23205;49.986;18.950;2022-10-19T01:52:42;13.00;99.90
37324;DHT22;23205;49.986;18.950;2022-10-19T01:57:46;13.10;99.90
37324;DHT22;23205;49.986;18.950;2022-10-19T02:02:50;13.00;99.90
37324;DHT22;23205;49.986;18.950;2022-10-19T02:07:57;13.10;99.90
37324;DHT22;23205;49.986;18.950;2022-10-19T02:12:59;13.20;99.90
37324;DHT22;23205;49.986;18.950;2022-10-19T02:18:02;13.20;99.90
37324;DHT22;23205;49.986;18.950;2022-10-19T02:23:04;12.90;99.90
37324;DHT22;23205;49.986;18.950;2022-10-19T02:28:06;12.90;99.90
37324;DHT22;23205;49.986;18.950;2022-10-19T02:33:07;12.90;99.90
37324;DHT22;23205;49.986;18.950;2022-10-19T02:38:09;13.00;99.90
37324;DHT22;23205;49.986;18.950;2022-10-19T02:43:13;12.90;99.90
37324;DHT22;23205;49.986;18.950;2022-10-19T02:48:21;12.90;99.90
37324;DHT22;23205;49.986;18.950;2022-10-19T02:53:23;13.00;99.90
37324;DHT22;23205;49.986;18.950;2022-10-19T02:58:23;13.00;99.90
37324;DHT22;23205;49.986;18.950;2022-10-19T03:03:24;12.90;99.90
37324;DHT22;23205;49.986;18.950;2022-10-19T03:08:25;12.90;99.90
37324;DHT22;23205;49.986;18.950;2022-10-19T03:13:25;12.90;99.90
37324;DHT22;23205;49.986;18.950;2022-10-19T03:18:26;13.00;99.90
37324;DHT22;23205;49.986;18.950;2022-10-19T03:23:28;13.00;99.90
37324;DHT22;23205;49.986;18.950;2022-10-19T03:28:29;13.00;99.90
37324;DHT22;23205;49.986;18.950;2022-10-19T03:33:29;12.90;99.90
37324;DHT22;23205;49.986;18.950;2022-10-19T03:38:30;12.90;99.90
37324;DHT22;23205;49.986;18.950;2022-10-19T03:43:31;12.80;99.90
37324;DHT22;23205;49.986;18.950;2022-10-19T03:48:32;12.90;99.90
37324;DHT22;23205;49.986;18.950;2022-10-19T03:53:33;13.00;99.90
37324;DHT22;23205;49.986;18.950;2022-10-19T03:58:35;12.90;99.90
37324;DHT22;23205;49.986;18.950;2022-10-19T04:03:37;12.80;99.90
37324;DHT22;23205;49.986;18.950;2022-10-19T04:08:38;12.80;99.90
37324;DHT22;23205;49.986;18.950;2022-10-19T04:13:39;12.80;99.90
37324;DHT22;23205;49.986;18.950;2022-10-19T04:18:40;12.80;99.90
37324;DHT22;23205;49.986;18.950;2022-10-19T04:23:40;12.70;99.90
37324;DHT22;23205;49.986;18.950;2022-10-19T04:28:41;12.50;99.90
37324;DHT22;23205;49.986;18.950;2022-10-19T04:33:42;12.60;99.90
37324;DHT22;23205;49.986;18.950;2022-10-19T04:38:43;12.50;99.90
37324;DHT22;23205;49.986;18.950;2022-10-19T04:43:44;12.50;99.90
37324;DHT22;23205;49.986;18.950;2022-10-19T04:48:46;12.50;99.90
37324;DHT22;23205;49.986;18.950;2022-10-19T04:53:47;12.40;99.90
37324;DHT22;23205;49.986;18.950;2022-10-19T04:58:48;12.30;99.90
37324;DHT22;23205;49.986;18.950;2022-10-19T05:03:56;12.50;99.90
37324;DHT22;23205;49.986;18.950;2022-10-19T05:08:57;12.50;99.90
37324;DHT22;23205;49.986;18.950;2022-10-19T05:13:58;12.40;99.90
37324;DHT22;23205;49.986;18.950;2022-10-19T05:18:59;12.30;99.90
37324;DHT22;23205;49.986;18.950;2022-10-19T05:24:01;12.00;99.90
37324;DHT22;23205;49.986;18.950;2022-10-19T05:29:01;12.10;99.90
37324;DHT22;23205;49.986;18.950;2022-10-19T05:34:04;11.90;99.90
37324;DHT22;23205;49.986;18.950;2022-10-19T05:39:13;11.90;99.90
37324;DHT22;23205;49.986;18.950;2022-10-19T05:44:16;11.70;99.90
37324;DHT22;23205;49.986;18.950;2022-10-19T05:49:19;11.70;99.90
37324;DHT22;23205;49.986;18.950;2022-10-19T05:54:20;11.60;99.90
37324;DHT22;23205;49.986;18.950;2022-10-19T05:59:22;11.70;99.90
37324;DHT22;23205;49.986;18.950;2022-10-19T06:04:23;11.50;99.90
37324;DHT22;23205;49.986;18.950;2022-10-19T06:09:24;11.40;99.90
37324;DHT22;23205;49.986;18.950;2022-10-19T06:14:25;11.40;99.90
37324;DHT22;23205;49.986;18.950;2022-10-19T06:19:25;11.30;99.90
37324;DHT22;23205;49.986;18.950;2022-10-19T06:24:27;11.40;99.90
37324;DHT22;23205;49.986;18.950;2022-10-19T06:29:28;11.60;99.90
37324;DHT22;23205;49.986;18.950;2022-10-19T06:34:28;11.90;99.90
37324;DHT22;23205;49.986;18.950;2022-10-19T06:39:29;12.00;99.90
37324;DHT22;23205;49.986;18.950;2022-10-19T06:44:30;12.00;99.90
37324;DHT22;23205;49.986;18.950;2022-10-19T06:49:30;12.00;99.90
37324;DHT22;23205;49.986;18.950;2022-10-19T06:54:31;11.90;99.90
37324;DHT22;23205;49.986;18.950;2022-10-19T06:59:32;12.00;99.90
37324;DHT22;23205;49.986;18.950;2022-10-19T07:04:32;11.90;99.90
37324;DHT22;23205;49.986;18.950;2022-10-19T07:09:33;12.00;99.90
37324;DHT22;23205;49.986;18.950;2022-10-19T07:14:34;12.20;99.90
37324;DHT22;23205;49.986;18.950;2022-10-19T07:19:38;12.30;99.90
37324;DHT22;23205;49.986;18.950;2022-10-19T07:24:38;12.70;99.90
37324;DHT22;23205;49.986;18.950;2022-10-19T07:29:39;12.80;99.90
37324;DHT22;23205;49.986;18.950;2022-10-19T07:34:40;12.90;99.90
37324;DHT22;23205;49.986;18.950;2022-10-19T07:39:40;12.90;99.90
37324;DHT22;23205;49.986;18.950;2022-10-19T07:44:41;12.90;99.90
37324;DHT22;23205;49.986;18.950;2022-10-19T07:49:42;12.80;99.90
37324;DHT22;23205;49.986;18.950;2022-10-19T07:54:42;13.00;99.90
37324;DHT22;23205;49.986;18.950;2022-10-19T07:59:43;13.00;99.90
37324;DHT22;23205;49.986;18.950;2022-10-19T08:04:44;13.10;99.90
37324;DHT22;23205;49.986;18.950;2022-10-19T08:09:45;13.10;99.90
37324;DHT22;23205;49.986;18.950;2022-10-19T08:14:45;13.20;99.90
37324;DHT22;23205;49.986;18.950;2022-10-19T08:19:47;13.30;99.90
37324;DHT22;23205;49.986;18.950;2022-10-19T08:24:48;13.80;99.90
37324;DHT22;23205;49.986;18.950;2022-10-19T08:29:49;13.50;99.90
37324;DHT22;23205;49.986;18.950;2022-10-19T08:34:50;13.40;99.90
37324;DHT22;23205;49.986;18.950;2022-10-19T08:39:51;13.10;99.90
37324;DHT22;23205;49.986;18.950;2022-10-19T08:45:20;13.40;99.90
37324;DHT22;23205;49.986;18.950;2022-10-19T08:50:26;13.50;99.90
37324;DHT22;23205;49.986;18.950;2022-10-19T09:00:53;13.50;99.90
37324;DHT22;23205;49.986;18.950;2022-10-19T09:06:36;13.40;99.90
37324;DHT22;23205;49.986;18.950;2022-10-19T09:11:38;13.30;99.90
37324;DHT22;23205;49.986;18.950;2022-10-19T09:16:42;14.10;99.90
37324;DHT22;23205;49.986;18.950;2022-10-19T09:21:49;13.60;99.90
37324;DHT22;23205;49.986;18.950;2022-10-19T09:26:54;13.50;99.90
37324;DHT22;23205;49.986;18.950;2022-10-19T09:31:58;14.30;99.90
37324;DHT22;23205;49.986;18.950;2022-10-19T09:36:59;15.10;99.40
37324;DHT22;23205;49.986;18.950;2022-10-19T09:42:12;14.80;97.20
37324;DHT22;23205;49.986;18.950;2022-10-19T09:47:28;14.30;94.90
37324;DHT22;23205;49.986;18.950;2022-10-19T09:52:36;14.10;95.20
37324;DHT22;23205;49.986;18.950;2022-10-19T10:03:02;14.00;95.60
37324;DHT22;23205;49.986;18.950;2022-10-19T10:08:10;14.20;95.70
37324;DHT22;23205;49.986;18.950;2022-10-19T10:13:20;13.70;96.50
37324;DHT22;23205;49.986;18.950;2022-10-19T10:18:22;13.70;95.90
37324;DHT22;23205;49.986;18.950;2022-10-19T10:23:26;13.70;96.30
37324;DHT22;23205;49.986;18.950;2022-10-19T10:28:28;13.70;96.60
37324;DHT22;23205;49.986;18.950;2022-10-19T10:33:32;13.70;97.00
37324;DHT22;23205;49.986;18.950;2022-10-19T10:38:42;13.60;96.90
37324;DHT22;23205;49.986;18.950;2022-10-19T10:43:56;13.60;97.10
37324;DHT22;23205;49.986;18.950;2022-10-19T10:49:00;13.80;97.70
37324;DHT22;23205;49.986;18.950;2022-10-19T10:59:27;13.90;97.50
37324;DHT22;23205;49.986;18.950;2022-10-19T11:04:38;13.80;95.50
37324;DHT22;23205;49.986;18.950;2022-10-19T11:09:45;13.60;96.30
37324;DHT22;23205;49.986;18.950;2022-10-19T11:14:53;13.60;97.60
37324;DHT22;23205;49.986;18.950;2022-10-19T11:19:55;13.70;97.60
37324;DHT22;23205;49.986;18.950;2022-10-19T11:30:22;13.70;97.10
37324;DHT22;23205;49.986;18.950;2022-10-19T11:51:49;13.70;98.60
37324;DHT22;23205;49.986;18.950;2022-10-19T11:57:06;14.00;98.50
37324;DHT22;23205;49.986;18.950;2022-10-19T12:12:40;13.60;97.90
37324;DHT22;23205;49.986;18.950;2022-10-19T12:17:47;13.60;98.30
37324;DHT22;23205;49.986;18.950;2022-10-19T12:22:49;13.60;98.00
37324;DHT22;23205;49.986;18.950;2022-10-19T12:27:50;13.30;98.90
37324;DHT22;23205;49.986;18.950;2022-10-19T12:32:59;13.20;99.90
37324;DHT22;23205;49.986;18.950;2022-10-19T12:38:09;13.20;98.80
37324;DHT22;23205;49.986;18.950;2022-10-19T12:43:12;13.40;98.70
37324;DHT22;23205;49.986;18.950;2022-10-19T12:48:18;13.40;97.70
37324;DHT22;23205;49.986;18.950;2022-10-19T12:58:55;13.20;97.20
37324;DHT22;23205;49.986;18.950;2022-10-19T13:04:10;13.20;98.00
37324;DHT22;23205;49.986;18.950;2022-10-19T13:09:30;13.00;97.50
37324;DHT22;23205;49.986;18.950;2022-10-19T13:14:48;12.90;97.70
37324;DHT22;23205;49.986;18.950;2022-10-19T13:19:49;12.90;98.50
37324;DHT22;23205;49.986;18.950;2022-10-19T13:25:22;13.00;98.50
37324;DHT22;23205;49.986;18.950;2022-10-19T13:35:36;12.90;98.90
37324;DHT22;23205;49.986;18.950;2022-10-19T13:40:39;12.90;99.40
37324;DHT22;23205;49.986;18.950;2022-10-19T13:45:41;12.80;99.70
37324;DHT22;23205;49.986;18.950;2022-10-19T13:50:51;12.60;99.90
37324;DHT22;23205;49.986;18.950;2022-10-19T13:56:29;12.50;99.90
37324;DHT22;23205;49.986;18.950;2022-10-19T14:01:42;12.70;99.90
37324;DHT22;23205;49.986;18.950;2022-10-19T14:06:56;12.60;99.90
37324;DHT22;23205;49.986;18.950;2022-10-19T14:12:13;12.60;99.90
37324;DHT22;23205;49.986;18.950;2022-10-19T14:22:25;12.60;99.90
37324;DHT22;23205;49.986;18.950;2022-10-19T14:27:26;12.60;99.90
37324;DHT22;23205;49.986;18.950;2022-10-19T14:32:28;12.50;99.90
37324;DHT22;23205;49.986;18.950;2022-10-19T14:37:29;12.50;99.90
37324;DHT22;23205;49.986;18.950;2022-10-19T14:42:39;12.50;99.90
37324;DHT22;23205;49.986;18.950;2022-10-19T14:48:02;12.40;99.90
37324;DHT22;23205;49.986;18.950;2022-10-19T14:58:40;12.50;99.90
37324;DHT22;23205;49.986;18.950;2022-10-19T15:03:44;12.40;99.90
37324;DHT22;23205;49.986;18.950;2022-10-19T15:09:00;12.40;99.90
37324;DHT22;23205;49.986;18.950;2022-10-19T15:14:25;12.40;99.90
37324;DHT22;23205;49.986;18.950;2022-10-19T15:19:31;12.60;99.90
37324;DHT22;23205;49.986;18.950;2022-10-19T15:24:32;12.50;99.90
37324;DHT22;23205;49.986;18.950;2022-10-19T15:29:33;12.40;99.90
37324;DHT22;23205;49.986;18.950;2022-10-19T15:34:33;12.40;99.90
37324;DHT22;23205;49.986;18.950;2022-10-19T15:39:34;12.50;99.90
37324;DHT22;23205;49.986;18.950;2022-10-19T15:44:41;12.30;99.90
37324;DHT22;23205;49.986;18.950;2022-10-19T15:54:48;12.20;99.90
37324;DHT22;23205;49.986;18.950;2022-10-19T15:59:48;12.00;99.90
37324;DHT22;23205;49.986;18.950;2022-10-19T16:04:50;12.00;99.90
37324;DHT22;23205;49.986;18.950;2022-10-19T16:09:52;12.00;99.90
37324;DHT22;23205;49.986;18.950;2022-10-19T16:14:53;12.00;99.90
37324;DHT22;23205;49.986;18.950;2022-10-19T16:19:54;11.90;99.90
37324;DHT22;23205;49.986;18.950;2022-10-19T16:24:55;11.80;99.90
37324;DHT22;23205;49.986;18.950;2022-10-19T16:29:56;11.50;99.90
37324;DHT22;23205;49.986;18.950;2022-10-19T16:34:56;11.40;99.90
37324;DHT22;23205;49.986;18.950;2022-10-19T16:39:57;11.30;99.90
37324;DHT22;23205;49.986;18.950;2022-10-19T16:45:00;11.10;99.90
37324;DHT22;23205;49.986;18.950;2022-10-19T16:50:03;11.00;99.90
37324;DHT22;23205;49.986;18.950;2022-10-19T16:55:05;10.90;99.90
37324;DHT22;23205;49.986;18.950;2022-10-19T17:00:06;10.70;99.90
37324;DHT22;23205;49.986;18.950;2022-10-19T17:05:09;10.80;99.90
37324;DHT22;23205;49.986;18.950;2022-10-19T17:10:09;10.90;99.90
37324;DHT22;23205;49.986;18.950;2022-10-19T17:15:10;10.90;99.90
37324;DHT22;23205;49.986;18.950;2022-10-19T17:20:12;11.00;99.90
37324;DHT22;23205;49.986;18.950;2022-10-19T17:25:15;10.90;99.90
37324;DHT22;23205;49.986;18.950;2022-10-19T17:30:16;11.00;99.90
37324;DHT22;23205;49.986;18.950;2022-10-19T17:35:17;11.00;99.90
37324;DHT22;23205;49.986;18.950;2022-10-19T17:40:17;11.00;99.90
37324;DHT22;23205;49.986;18.950;2022-10-19T17:45:18;11.00;99.90
37324;DHT22;23205;49.986;18.950;2022-10-19T17:50:19;11.00;99.90
37324;DHT22;23205;49.986;18.950;2022-10-19T17:55:19;11.10;99.90
37324;DHT22;23205;49.986;18.950;2022-10-19T18:00:20;11.10;99.90
37324;DHT22;23205;49.986;18.950;2022-10-19T18:05:21;11.10;99.90
37324;DHT22;23205;49.986;18.950;2022-10-19T18:10:22;11.00;99.90
37324;DHT22;23205;49.986;18.950;2022-10-19T18:15:22;11.10;99.90
37324;DHT22;23205;49.986;18.950;2022-10-19T18:20:23;11.00;99.90
37324;DHT22;23205;49.986;18.950;2022-10-19T18:25:24;11.10;99.90
37324;DHT22;23205;49.986;18.950;2022-10-19T18:30:24;11.10;99.90
37324;DHT22;23205;49.986;18.950;2022-10-19T18:35:25;11.10;99.90
37324;DHT22;23205;49.986;18.950;2022-10-19T18:40:26;11.10;99.90
37324;DHT22;23205;49.986;18.950;2022-10-19T18:45:27;11.10;99.90
37324;DHT22;23205;49.986;18.950;2022-10-19T18:50:28;11.10;99.90
37324;DHT22;23205;49.986;18.950;2022-10-19T18:55:29;11.10;99.90
37324;DHT22;23205;49.986;18.950;2022-10-19T19:00:30;11.10;99.90
37324;DHT22;23205;49.986;18.950;2022-10-19T19:05:31;11.10;99.90
37324;DHT22;23205;49.986;18.950;2022-10-19T19:10:32;11.10;99.90
37324;DHT22;23205;49.986;18.950;2022-10-19T19:15:33;11.10;99.90
37324;DHT22;23205;49.986;18.950;2022-10-19T19:20:33;11.00;99.90
37324;DHT22;23205;49.986;18.950;2022-10-19T19:25:38;11.10;99.90
37324;DHT22;23205;49.986;18.950;2022-10-19T19:30:41;11.00;99.90
37324;DHT22;23205;49.986;18.950;2022-10-19T19:35:43;11.00;99.90
37324;DHT22;23205;49.986;18.950;2022-10-19T19:40:45;11.00;99.90
37324;DHT22;23205;49.986;18.950;2022-10-19T19:45:54;11.00;99.90
37324;DHT22;23205;49.986;18.950;2022-10-19T19:50:55;11.00;99.90
37324;DHT22;23205;49.986;18.950;2022-10-19T19:55:56;10.90;99.90
37324;DHT22;23205;49.986;18.950;2022-10-19T20:00:57;10.90;99.90
37324;DHT22;23205;49.986;18.950;2022-10-19T20:06:01;10.90;99.90
37324;DHT22;23205;49.986;18.950;2022-10-19T20:11:05;10.90;99.90
37324;DHT22;23205;49.986;18.950;2022-10-19T20:16:09;11.00;99.90
37324;DHT22;23205;49.986;18.950;2022-10-19T20:21:12;10.90;99.90
37324;DHT22;23205;49.986;18.950;2022-10-19T20:26:19;10.90;99.90
37324;DHT22;23205;49.986;18.950;2022-10-19T20:31:20;10.60;99.90
37324;DHT22;23205;49.986;18.950;2022-10-19T20:36:23;10.40;99.90
37324;DHT22;23205;49.986;18.950;2022-10-19T20:41:26;10.10;99.90
37324;DHT22;23205;49.986;18.950;2022-10-19T20:46:28;9.90;99.90
37324;DHT22;23205;49.986;18.950;2022-10-19T20:51:31;9.70;99.90
37324;DHT22;23205;49.986;18.950;2022-10-19T20:56:34;9.60;99.90
37324;DHT22;23205;49.986;18.950;2022-10-19T21:01:37;9.50;99.90
37324;DHT22;23205;49.986;18.950;2022-10-19T21:06:44;9.30;99.90
37324;DHT22;23205;49.986;18.950;2022-10-19T21:11:46;9.20;99.90
37324;DHT22;23205;49.986;18.950;2022-10-19T21:16:47;9.10;99.90
37324;DHT22;23205;49.986;18.950;2022-10-19T21:21:50;9.00;99.90
37324;DHT22;23205;49.986;18.950;2022-10-19T21:26:52;8.80;99.90
37324;DHT22;23205;49.986;18.950;2022-10-19T21:31:53;8.60;99.90
37324;DHT22;23205;49.986;18.950;2022-10-19T21:36:54;8.60;99.90
37324;DHT22;23205;49.986;18.950;2022-10-19T21:41:55;8.50;99.90
37324;DHT22;23205;49.986;18.950;2022-10-19T21:46:56;8.30;99.90
37324;DHT22;23205;49.986;18.950;2022-10-19T21:51:57;8.40;99.90
37324;DHT22;23205;49.986;18.950;2022-10-19T21:56:57;8.20;99.90
37324;DHT22;23205;49.986;18.950;2022-10-19T22:02:00;8.00;99.90
37324;DHT22;23205;49.986;18.950;2022-10-19T22:07:01;7.90;99.90
37324;DHT22;23205;49.986;18.950;2022-10-19T22:12:02;7.90;99.90
37324;DHT22;23205;49.986;18.950;2022-10-19T22:17:03;7.80;99.90
37324;DHT22;23205;49.986;18.950;2022-10-19T22:22:04;7.90;99.90
37324;DHT22;23205;49.986;18.950;2022-10-19T22:27:05;7.80;99.90
37324;DHT22;23205;49.986;18.950;2022-10-19T22:32:05;7.90;99.90
37324;DHT22;23205;49.986;18.950;2022-10-19T22:37:06;7.80;99.90
37324;DHT22;23205;49.986;18.950;2022-10-19T22:54:38;7.50;99.90
37324;DHT22;23205;49.986;18.950;2022-10-19T22:59:40;7.50;99.90
37324;DHT22;23205;49.986;18.950;2022-10-19T23:04:41;7.40;99.90
37324;DHT22;23205;49.986;18.950;2022-10-19T23:09:42;7.30;99.90
37324;DHT22;23205;49.986;18.950;2022-10-19T23:14:42;7.20;99.90
37324;DHT22;23205;49.986;18.950;2022-10-19T23:19:43;7.20;99.90
37324;DHT22;23205;49.986;18.950;2022-10-19T23:24:44;7.10;99.90
37324;DHT22;23205;49.986;18.950;2022-10-19T23:29:45;7.10;99.90
37324;DHT22;23205;49.986;18.950;2022-10-19T23:34:45;6.90;99.90
37324;DHT22;23205;49.986;18.950;2022-10-19T23:39:46;6.60;99.90
37324;DHT22;23205;49.986;18.950;2022-10-19T23:44:47;6.50;99.90
37324;DHT22;23205;49.986;18.950;2022-10-19T23:49:48;6.30;99.90
37324;DHT22;23205;49.986;18.950;2022-10-19T23:54:48;6.20;99.90
37324;DHT22;23205;49.986;18.950;2022-10-19T23:59:49;6.10;99.90
